sensor_id;sensor_type;location;lat;lon;timestamp;pressure;altitude;pressure_sealevel;temperature;humidity
65013;BME280;51715;39.432;-77.518;2023-05-11T00:02:27;99985.57;;;21.80;25.07
65013;BME280;51715;39.432;-77.518;2023-05-11T00:04:56;99987.12;;;21.65;25.20
65013;BME280;51715;39.432;-77.518;2023-05-11T00:07:25;99988.58;;;21.43;25.12
65013;BME280;51715;39.432;-77.518;2023-05-11T00:09:53;99992.40;;;20.81;27.22
65013;BME280;51715;39.432;-77.518;2023-05-11T00:12:23;99989.25;;;19.75;28.07
65013;BME280;51715;39.432;-77.518;2023-05-11T00:14:51;99988.16;;;20.15;27.07
65013;BME280;51715;39.432;-77.518;2023-05-11T00:17:20;99989.49;;;20.34;26.88
65013;BME280;51715;39.432;-77.518;2023-05-11T00:19:48;99989.44;;;20.23;27.70
65013;BME280;51715;39.432;-77.518;2023-05-11T00:22:16;99989.03;;;20.23;27.34
65013;BME280;51715;39.432;-77.518;2023-05-11T00:24:44;99993.81;;;20.29;27.61
65013;BME280;51715;39.432;-77.518;2023-05-11T00:27:13;100001.44;;;20.19;27.81
65013;BME280;51715;39.432;-77.518;2023-05-11T00:29:42;100003.20;;;19.62;27.96
65013;BME280;51715;39.432;-77.518;2023-05-11T00:32:10;100005.84;;;19.98;28.92
65013;BME280;51715;39.432;-77.518;2023-05-11T00:34:38;100007.29;;;19.76;29.49
65013;BME280;51715;39.432;-77.518;2023-05-11T00:37:07;100014.03;;;19.70;29.82
65013;BME280;51715;39.432;-77.518;2023-05-11T00:39:36;100018.53;;;19.54;29.76
65013;BME280;51715;39.432;-77.518;2023-05-11T00:42:05;100020.61;;;19.39;29.74
65013;BME280;51715;39.432;-77.518;2023-05-11T00:44:33;100021.90;;;19.31;29.34
65013;BME280;51715;39.432;-77.518;2023-05-11T00:47:02;100029.54;;;19.22;29.09
65013;BME280;51715;39.432;-77.518;2023-05-11T00:49:31;100032.53;;;19.14;29.34
65013;BME280;51715;39.432;-77.518;2023-05-11T00:52:01;100033.51;;;18.89;29.22
65013;BME280;51715;39.432;-77.518;2023-05-11T00:54:29;100035.82;;;18.97;29.18
65013;BME280;51715;39.432;-77.518;2023-05-11T00:56:59;100038.79;;;19.18;29.75
65013;BME280;51715;39.432;-77.518;2023-05-11T00:59:27;100038.47;;;18.68;30.03
65013;BME280;51715;39.432;-77.518;2023-05-11T01:01:56;100040.94;;;18.63;29.83
65013;BME280;51715;39.432;-77.518;2023-05-11T01:04:25;100042.08;;;18.57;29.98
65013;BME280;51715;39.432;-77.518;2023-05-11T01:07:02;100044.05;;;18.44;29.46
65013;BME280;51715;39.432;-77.518;2023-05-11T01:09:45;100046.31;;;18.46;29.60
65013;BME280;51715;39.432;-77.518;2023-05-11T01:12:22;100049.45;;;18.24;29.83
65013;BME280;51715;39.432;-77.518;2023-05-11T01:15:00;100058.15;;;18.29;30.30
65013;BME280;51715;39.432;-77.518;2023-05-11T01:17:39;100060.83;;;18.19;30.18
65013;BME280;51715;39.432;-77.518;2023-05-11T01:20:14;100065.93;;;17.87;29.93
65013;BME280;51715;39.432;-77.518;2023-05-11T01:23:05;100071.49;;;17.81;30.20
65013;BME280;51715;39.432;-77.518;2023-05-11T01:25:51;100074.25;;;17.46;30.45
65013;BME280;51715;39.432;-77.518;2023-05-11T01:28:33;100070.72;;;17.78;30.58
65013;BME280;51715;39.432;-77.518;2023-05-11T01:31:09;100069.55;;;18.09;30.44
65013;BME280;51715;39.432;-77.518;2023-05-11T01:33:43;100064.42;;;17.45;30.98
65013;BME280;51715;39.432;-77.518;2023-05-11T01:36:15;100065.83;;;17.53;31.68
65013;BME280;51715;39.432;-77.518;2023-05-11T01:38:46;100062.16;;;17.13;31.63
65013;BME280;51715;39.432;-77.518;2023-05-11T01:41:17;100058.94;;;17.29;31.73
65013;BME280;51715;39.432;-77.518;2023-05-11T01:43:54;100058.81;;;17.30;31.23
65013;BME280;51715;39.432;-77.518;2023-05-11T01:46:26;100063.46;;;17.30;31.08
65013;BME280;51715;39.432;-77.518;2023-05-11T01:48:59;100067.12;;;17.31;30.23
65013;BME280;51715;39.432;-77.518;2023-05-11T01:51:33;100070.72;;;16.87;30.09
65013;BME280;51715;39.432;-77.518;2023-05-11T01:54:04;100075.38;;;16.98;31.33
65013;BME280;51715;39.432;-77.518;2023-05-11T01:56:34;100077.82;;;16.89;31.54
65013;BME280;51715;39.432;-77.518;2023-05-11T01:59:02;100080.18;;;16.87;31.32
65013;BME280;51715;39.432;-77.518;2023-05-11T02:01:35;100079.86;;;16.46;31.48
65013;BME280;51715;39.432;-77.518;2023-05-11T02:04:05;100081.47;;;16.57;31.58
65013;BME280;51715;39.432;-77.518;2023-05-11T02:06:35;100086.35;;;16.86;30.93
65013;BME280;51715;39.432;-77.518;2023-05-11T02:09:07;100090.46;;;16.82;31.44
65013;BME280;51715;39.432;-77.518;2023-05-11T02:11:39;100089.62;;;16.79;31.15
65013;BME280;51715;39.432;-77.518;2023-05-11T02:14:10;100090.17;;;16.47;31.27
65013;BME280;51715;39.432;-77.518;2023-05-11T02:16:38;100092.07;;;16.42;31.24
65013;BME280;51715;39.432;-77.518;2023-05-11T02:19:08;100092.83;;;16.47;31.75
65013;BME280;51715;39.432;-77.518;2023-05-11T02:21:37;100095.69;;;16.28;31.55
65013;BME280;51715;39.432;-77.518;2023-05-11T02:24:08;100097.31;;;16.32;32.21
65013;BME280;51715;39.432;-77.518;2023-05-11T02:26:36;100099.18;;;16.30;32.86
65013;BME280;51715;39.432;-77.518;2023-05-11T02:29:06;100104.65;;;16.25;33.04
65013;BME280;51715;39.432;-77.518;2023-05-11T02:31:41;100108.90;;;16.14;32.73
65013;BME280;51715;39.432;-77.518;2023-05-11T02:34:14;100105.37;;;16.02;32.84
65013;BME280;51715;39.432;-77.518;2023-05-11T02:36:45;100100.35;;;16.05;33.29
65013;BME280;51715;39.432;-77.518;2023-05-11T02:39:16;100097.46;;;16.05;33.29
65013;BME280;51715;39.432;-77.518;2023-05-11T02:41:54;100096.81;;;16.08;32.28
65013;BME280;51715;39.432;-77.518;2023-05-11T02:44:26;100095.12;;;16.00;32.05
65013;BME280;51715;39.432;-77.518;2023-05-11T02:46:58;100105.93;;;15.96;32.09
65013;BME280;51715;39.432;-77.518;2023-05-11T02:49:30;100110.85;;;15.76;32.08
65013;BME280;51715;39.432;-77.518;2023-05-11T02:52:00;100115.64;;;15.69;32.06
65013;BME280;51715;39.432;-77.518;2023-05-11T02:54:31;100110.49;;;15.55;32.85
65013;BME280;51715;39.432;-77.518;2023-05-11T02:57:01;100105.21;;;15.66;33.68
65013;BME280;51715;39.432;-77.518;2023-05-11T02:59:31;100105.49;;;15.40;34.09
65013;BME280;51715;39.432;-77.518;2023-05-11T03:01:59;100113.30;;;15.32;34.33
65013;BME280;51715;39.432;-77.518;2023-05-11T03:04:28;100115.78;;;15.47;33.91
65013;BME280;51715;39.432;-77.518;2023-05-11T03:06:56;100119.67;;;15.37;34.51
65013;BME280;51715;39.432;-77.518;2023-05-11T03:09:24;100121.71;;;15.40;34.40
65013;BME280;51715;39.432;-77.518;2023-05-11T03:11:54;100116.68;;;15.02;35.34
65013;BME280;51715;39.432;-77.518;2023-05-11T03:14:23;100118.49;;;15.11;34.39
65013;BME280;51715;39.432;-77.518;2023-05-11T03:16:52;100121.28;;;15.27;34.01
65013;BME280;51715;39.432;-77.518;2023-05-11T03:19:21;100122.98;;;15.03;34.47
65013;BME280;51715;39.432;-77.518;2023-05-11T03:21:51;100122.18;;;15.50;33.74
65013;BME280;51715;39.432;-77.518;2023-05-11T03:24:21;100119.44;;;14.94;34.75
65013;BME280;51715;39.432;-77.518;2023-05-11T03:26:52;100113.67;;;15.17;35.10
65013;BME280;51715;39.432;-77.518;2023-05-11T03:29:21;100107.52;;;15.30;34.65
65013;BME280;51715;39.432;-77.518;2023-05-11T03:31:49;100104.13;;;15.21;34.71
65013;BME280;51715;39.432;-77.518;2023-05-11T03:34:17;100097.57;;;15.21;35.68
65013;BME280;51715;39.432;-77.518;2023-05-11T03:36:48;100093.31;;;15.18;34.97
65013;BME280;51715;39.432;-77.518;2023-05-11T03:39:17;100090.12;;;14.94;35.19
65013;BME280;51715;39.432;-77.518;2023-05-11T03:41:49;100092.12;;;14.94;34.89
65013;BME280;51715;39.432;-77.518;2023-05-11T03:44:21;100097.61;;;15.13;35.26
65013;BME280;51715;39.432;-77.518;2023-05-11T03:46:50;100103.41;;;14.95;35.60
65013;BME280;51715;39.432;-77.518;2023-05-11T03:49:20;100105.90;;;14.73;35.65
65013;BME280;51715;39.432;-77.518;2023-05-11T03:51:49;100110.34;;;14.95;35.88
65013;BME280;51715;39.432;-77.518;2023-05-11T03:54:18;100110.23;;;15.03;35.99
65013;BME280;51715;39.432;-77.518;2023-05-11T03:56:47;100104.98;;;15.07;35.53
65013;BME280;51715;39.432;-77.518;2023-05-11T03:59:16;100105.69;;;14.82;35.87
65013;BME280;51715;39.432;-77.518;2023-05-11T04:04:00;100115.55;;;14.79;34.27
65013;BME280;51715;39.432;-77.518;2023-05-11T04:06:28;100125.76;;;14.75;34.62
65013;BME280;51715;39.432;-77.518;2023-05-11T04:08:56;100125.92;;;14.98;35.21
65013;BME280;51715;39.432;-77.518;2023-05-11T04:11:25;100122.83;;;14.92;34.90
65013;BME280;51715;39.432;-77.518;2023-05-11T04:13:53;100122.30;;;15.17;34.93
65013;BME280;51715;39.432;-77.518;2023-05-11T04:16:21;100119.26;;;14.64;35.25
65013;BME280;51715;39.432;-77.518;2023-05-11T04:18:49;100121.48;;;14.90;35.81
65013;BME280;51715;39.432;-77.518;2023-05-11T04:21:17;100119.02;;;14.66;35.97
65013;BME280;51715;39.432;-77.518;2023-05-11T04:23:45;100121.27;;;14.60;36.32
65013;BME280;51715;39.432;-77.518;2023-05-11T04:26:13;100117.52;;;14.46;36.99
65013;BME280;51715;39.432;-77.518;2023-05-11T04:28:42;100115.40;;;14.26;36.81
65013;BME280;51715;39.432;-77.518;2023-05-11T04:31:11;100117.94;;;14.21;37.07
65013;BME280;51715;39.432;-77.518;2023-05-11T04:33:40;100119.03;;;14.23;36.84
65013;BME280;51715;39.432;-77.518;2023-05-11T04:36:09;100122.37;;;14.13;37.22
65013;BME280;51715;39.432;-77.518;2023-05-11T04:38:37;100118.96;;;14.30;37.11
65013;BME280;51715;39.432;-77.518;2023-05-11T04:41:06;100117.65;;;14.05;37.51
65013;BME280;51715;39.432;-77.518;2023-05-11T04:43:34;100121.92;;;13.88;37.74
65013;BME280;51715;39.432;-77.518;2023-05-11T04:46:02;100121.08;;;14.09;37.79
65013;BME280;51715;39.432;-77.518;2023-05-11T04:48:30;100116.66;;;14.20;37.83
65013;BME280;51715;39.432;-77.518;2023-05-11T04:50:58;100110.63;;;14.21;37.72
65013;BME280;51715;39.432;-77.518;2023-05-11T04:53:31;100105.96;;;14.03;37.66
65013;BME280;51715;39.432;-77.518;2023-05-11T04:56:00;100107.20;;;13.99;38.09
65013;BME280;51715;39.432;-77.518;2023-05-11T04:58:28;100104.42;;;14.00;37.86
65013;BME280;51715;39.432;-77.518;2023-05-11T05:00:56;100110.23;;;14.13;38.13
65013;BME280;51715;39.432;-77.518;2023-05-11T05:03:23;100112.58;;;13.82;38.04
65013;BME280;51715;39.432;-77.518;2023-05-11T05:05:51;100110.99;;;13.89;38.04
65013;BME280;51715;39.432;-77.518;2023-05-11T05:08:19;100105.72;;;14.03;38.08
65013;BME280;51715;39.432;-77.518;2023-05-11T05:10:47;100100.73;;;14.31;37.66
65013;BME280;51715;39.432;-77.518;2023-05-11T05:13:15;100094.91;;;13.78;37.88
65013;BME280;51715;39.432;-77.518;2023-05-11T05:15:44;100091.58;;;13.85;38.27
65013;BME280;51715;39.432;-77.518;2023-05-11T05:18:13;100088.46;;;14.07;38.34
65013;BME280;51715;39.432;-77.518;2023-05-11T05:20:41;100083.47;;;13.84;38.73
65013;BME280;51715;39.432;-77.518;2023-05-11T05:23:09;100081.18;;;13.82;38.97
65013;BME280;51715;39.432;-77.518;2023-05-11T05:25:38;100078.93;;;13.74;39.14
65013;BME280;51715;39.432;-77.518;2023-05-11T05:28:06;100077.04;;;13.52;38.86
65013;BME280;51715;39.432;-77.518;2023-05-11T05:30:34;100072.06;;;13.83;38.99
65013;BME280;51715;39.432;-77.518;2023-05-11T05:33:03;100064.91;;;13.62;39.10
65013;BME280;51715;39.432;-77.518;2023-05-11T05:35:31;100061.63;;;13.91;38.88
65013;BME280;51715;39.432;-77.518;2023-05-11T05:37:59;100064.78;;;13.87;38.60
65013;BME280;51715;39.432;-77.518;2023-05-11T05:40:28;100065.80;;;13.85;38.73
65013;BME280;51715;39.432;-77.518;2023-05-11T05:42:56;100061.80;;;13.75;38.72
65013;BME280;51715;39.432;-77.518;2023-05-11T05:45:24;100057.06;;;13.60;39.15
65013;BME280;51715;39.432;-77.518;2023-05-11T05:47:52;100053.58;;;13.77;38.91
65013;BME280;51715;39.432;-77.518;2023-05-11T05:50:21;100050.34;;;13.66;38.87
65013;BME280;51715;39.432;-77.518;2023-05-11T05:52:49;100054.48;;;13.76;38.49
65013;BME280;51715;39.432;-77.518;2023-05-11T05:55:18;100053.75;;;13.79;37.98
65013;BME280;51715;39.432;-77.518;2023-05-11T05:57:46;100057.08;;;13.74;38.54
65013;BME280;51715;39.432;-77.518;2023-05-11T06:00:15;100055.55;;;13.71;38.72
65013;BME280;51715;39.432;-77.518;2023-05-11T06:02:44;100054.92;;;14.01;38.22
65013;BME280;51715;39.432;-77.518;2023-05-11T06:05:11;100056.33;;;13.98;38.62
65013;BME280;51715;39.432;-77.518;2023-05-11T06:07:39;100055.12;;;13.82;38.83
65013;BME280;51715;39.432;-77.518;2023-05-11T06:10:07;100058.62;;;13.78;38.87
65013;BME280;51715;39.432;-77.518;2023-05-11T06:12:35;100063.68;;;13.66;39.10
65013;BME280;51715;39.432;-77.518;2023-05-11T06:15:04;100069.80;;;13.56;39.25
65013;BME280;51715;39.432;-77.518;2023-05-11T06:17:32;100068.68;;;13.21;39.98
65013;BME280;51715;39.432;-77.518;2023-05-11T06:20:00;100070.30;;;13.29;39.81
65013;BME280;51715;39.432;-77.518;2023-05-11T06:22:29;100066.63;;;13.53;39.91
65013;BME280;51715;39.432;-77.518;2023-05-11T06:24:57;100065.51;;;13.31;40.01
65013;BME280;51715;39.432;-77.518;2023-05-11T06:27:25;100062.20;;;13.29;39.87
65013;BME280;51715;39.432;-77.518;2023-05-11T06:29:53;100056.04;;;13.34;39.85
65013;BME280;51715;39.432;-77.518;2023-05-11T06:32:21;100051.17;;;13.35;39.56
65013;BME280;51715;39.432;-77.518;2023-05-11T06:34:49;100050.10;;;13.33;39.66
65013;BME280;51715;39.432;-77.518;2023-05-11T06:37:18;100051.49;;;13.35;39.66
65013;BME280;51715;39.432;-77.518;2023-05-11T06:39:47;100055.64;;;13.43;39.55
65013;BME280;51715;39.432;-77.518;2023-05-11T06:42:16;100056.33;;;13.48;39.51
65013;BME280;51715;39.432;-77.518;2023-05-11T06:44:44;100054.49;;;13.39;39.69
65013;BME280;51715;39.432;-77.518;2023-05-11T06:47:11;100049.59;;;13.11;40.19
65013;BME280;51715;39.432;-77.518;2023-05-11T06:49:41;100043.74;;;13.15;39.82
65013;BME280;51715;39.432;-77.518;2023-05-11T06:52:09;100042.37;;;12.95;40.34
65013;BME280;51715;39.432;-77.518;2023-05-11T06:54:36;100045.67;;;13.11;40.04
65013;BME280;51715;39.432;-77.518;2023-05-11T06:57:05;100046.67;;;12.94;39.94
65013;BME280;51715;39.432;-77.518;2023-05-11T06:59:33;100042.39;;;13.22;39.66
65013;BME280;51715;39.432;-77.518;2023-05-11T07:02:00;100041.30;;;13.22;39.69
65013;BME280;51715;39.432;-77.518;2023-05-11T07:04:29;100043.97;;;13.23;39.61
65013;BME280;51715;39.432;-77.518;2023-05-11T07:06:57;100044.54;;;12.98;39.65
65013;BME280;51715;39.432;-77.518;2023-05-11T07:09:25;100047.21;;;13.25;39.65
65013;BME280;51715;39.432;-77.518;2023-05-11T07:11:54;100048.50;;;13.26;39.27
65013;BME280;51715;39.432;-77.518;2023-05-11T07:14:21;100054.07;;;13.24;39.42
65013;BME280;51715;39.432;-77.518;2023-05-11T07:16:50;100058.78;;;13.45;39.54
65013;BME280;51715;39.432;-77.518;2023-05-11T07:19:18;100054.62;;;13.21;39.39
65013;BME280;51715;39.432;-77.518;2023-05-11T07:21:46;100050.10;;;13.22;38.96
65013;BME280;51715;39.432;-77.518;2023-05-11T07:24:14;100049.84;;;13.25;39.28
65013;BME280;51715;39.432;-77.518;2023-05-11T07:26:42;100051.17;;;13.22;39.43
65013;BME280;51715;39.432;-77.518;2023-05-11T07:29:10;100051.01;;;13.27;39.43
65013;BME280;51715;39.432;-77.518;2023-05-11T07:31:39;100054.86;;;13.30;39.37
65013;BME280;51715;39.432;-77.518;2023-05-11T07:34:07;100061.60;;;13.32;39.37
65013;BME280;51715;39.432;-77.518;2023-05-11T07:36:36;100062.52;;;13.29;39.38
65013;BME280;51715;39.432;-77.518;2023-05-11T07:39:05;100062.03;;;13.17;39.45
65013;BME280;51715;39.432;-77.518;2023-05-11T07:41:33;100067.85;;;13.14;39.45
65013;BME280;51715;39.432;-77.518;2023-05-11T07:44:02;100068.98;;;13.30;39.26
65013;BME280;51715;39.432;-77.518;2023-05-11T07:46:30;100064.44;;;13.01;39.70
65013;BME280;51715;39.432;-77.518;2023-05-11T07:48:58;100065.83;;;12.94;39.65
65013;BME280;51715;39.432;-77.518;2023-05-11T07:51:26;100070.40;;;12.93;39.72
65013;BME280;51715;39.432;-77.518;2023-05-11T07:53:54;100069.16;;;13.09;39.81
65013;BME280;51715;39.432;-77.518;2023-05-11T07:56:22;100071.00;;;13.07;39.71
65013;BME280;51715;39.432;-77.518;2023-05-11T07:58:50;100074.90;;;12.80;39.71
65013;BME280;51715;39.432;-77.518;2023-05-11T08:01:19;100071.84;;;12.97;39.67
65013;BME280;51715;39.432;-77.518;2023-05-11T08:03:47;100067.45;;;12.91;40.20
65013;BME280;51715;39.432;-77.518;2023-05-11T08:06:15;100070.93;;;12.70;40.29
65013;BME280;51715;39.432;-77.518;2023-05-11T08:08:44;100072.81;;;13.15;40.47
65013;BME280;51715;39.432;-77.518;2023-05-11T08:11:12;100066.81;;;12.65;40.73
65013;BME280;51715;39.432;-77.518;2023-05-11T08:13:40;100062.13;;;12.81;40.99
65013;BME280;51715;39.432;-77.518;2023-05-11T08:16:08;100061.11;;;12.33;41.49
65013;BME280;51715;39.432;-77.518;2023-05-11T08:18:37;100060.33;;;12.53;41.45
65013;BME280;51715;39.432;-77.518;2023-05-11T08:21:06;100056.30;;;12.20;42.30
65013;BME280;51715;39.432;-77.518;2023-05-11T08:23:34;100054.52;;;12.41;41.94
65013;BME280;51715;39.432;-77.518;2023-05-11T08:26:03;100056.34;;;12.57;41.90
65013;BME280;51715;39.432;-77.518;2023-05-11T08:28:31;100057.67;;;12.71;41.44
65013;BME280;51715;39.432;-77.518;2023-05-11T08:31:00;100062.43;;;12.40;41.10
65013;BME280;51715;39.432;-77.518;2023-05-11T08:33:28;100070.89;;;12.70;40.76
65013;BME280;51715;39.432;-77.518;2023-05-11T08:35:55;100072.89;;;12.71;40.66
65013;BME280;51715;39.432;-77.518;2023-05-11T08:38:24;100074.94;;;12.74;40.58
65013;BME280;51715;39.432;-77.518;2023-05-11T08:40:53;100074.47;;;12.48;40.90
65013;BME280;51715;39.432;-77.518;2023-05-11T08:43:22;100077.23;;;12.63;40.86
65013;BME280;51715;39.432;-77.518;2023-05-11T08:45:56;100076.03;;;12.33;40.83
65013;BME280;51715;39.432;-77.518;2023-05-11T08:48:36;100072.91;;;12.15;42.05
65013;BME280;51715;39.432;-77.518;2023-05-11T08:51:06;100073.28;;;12.04;42.38
65013;BME280;51715;39.432;-77.518;2023-05-11T08:53:34;100081.23;;;12.19;42.26
65013;BME280;51715;39.432;-77.518;2023-05-11T08:56:04;100083.51;;;12.10;41.72
65013;BME280;51715;39.432;-77.518;2023-05-11T08:58:35;100087.15;;;12.28;42.02
65013;BME280;51715;39.432;-77.518;2023-05-11T09:01:03;100090.69;;;12.21;41.83
65013;BME280;51715;39.432;-77.518;2023-05-11T09:03:34;100094.08;;;12.26;41.76
65013;BME280;51715;39.432;-77.518;2023-05-11T09:06:05;100094.99;;;12.64;41.73
65013;BME280;51715;39.432;-77.518;2023-05-11T09:08:36;100094.84;;;12.56;41.39
65013;BME280;51715;39.432;-77.518;2023-05-11T09:11:04;100091.63;;;12.89;41.16
65013;BME280;51715;39.432;-77.518;2023-05-11T09:13:33;100092.34;;;12.47;40.93
65013;BME280;51715;39.432;-77.518;2023-05-11T09:16:02;100093.51;;;12.75;40.82
65013;BME280;51715;39.432;-77.518;2023-05-11T09:18:30;100092.03;;;12.76;40.75
65013;BME280;51715;39.432;-77.518;2023-05-11T09:21:00;100092.77;;;12.85;40.60
65013;BME280;51715;39.432;-77.518;2023-05-11T09:23:29;100097.07;;;12.85;40.93
65013;BME280;51715;39.432;-77.518;2023-05-11T09:25:59;100097.56;;;12.80;40.97
65013;BME280;51715;39.432;-77.518;2023-05-11T09:28:27;100098.27;;;12.75;41.18
65013;BME280;51715;39.432;-77.518;2023-05-11T09:30:55;100099.09;;;12.99;41.02
65013;BME280;51715;39.432;-77.518;2023-05-11T09:33:24;100096.28;;;12.97;40.75
65013;BME280;51715;39.432;-77.518;2023-05-11T09:35:53;100099.97;;;12.68;41.11
65013;BME280;51715;39.432;-77.518;2023-05-11T09:38:20;100100.92;;;12.48;41.41
65013;BME280;51715;39.432;-77.518;2023-05-11T09:40:53;100103.43;;;12.92;40.99
65013;BME280;51715;39.432;-77.518;2023-05-11T09:43:23;100105.30;;;12.91;41.17
65013;BME280;51715;39.432;-77.518;2023-05-11T09:45:53;100113.73;;;12.92;40.86
65013;BME280;51715;39.432;-77.518;2023-05-11T09:48:27;100118.60;;;12.62;40.98
65013;BME280;51715;39.432;-77.518;2023-05-11T09:51:03;100119.17;;;12.63;40.53
65013;BME280;51715;39.432;-77.518;2023-05-11T09:53:35;100121.03;;;12.89;40.76
65013;BME280;51715;39.432;-77.518;2023-05-11T09:56:04;100118.14;;;12.52;41.42
65013;BME280;51715;39.432;-77.518;2023-05-11T09:58:50;100116.66;;;12.75;41.67
65013;BME280;51715;39.432;-77.518;2023-05-11T10:01:27;100117.62;;;12.51;41.38
65013;BME280;51715;39.432;-77.518;2023-05-11T10:03:57;100122.06;;;12.49;41.19
65013;BME280;51715;39.432;-77.518;2023-05-11T10:06:27;100126.18;;;12.78;40.90
65013;BME280;51715;39.432;-77.518;2023-05-11T10:09:10;100131.55;;;12.53;40.79
65013;BME280;51715;39.432;-77.518;2023-05-11T10:11:43;100136.77;;;12.52;40.65
65013;BME280;51715;39.432;-77.518;2023-05-11T10:14:13;100142.38;;;12.55;40.64
65013;BME280;51715;39.432;-77.518;2023-05-11T10:16:42;100143.12;;;12.80;40.53
65013;BME280;51715;39.432;-77.518;2023-05-11T10:19:13;100145.59;;;12.74;40.92
65013;BME280;51715;39.432;-77.518;2023-05-11T10:21:41;100149.34;;;12.62;41.66
65013;BME280;51715;39.432;-77.518;2023-05-11T10:24:11;100149.42;;;12.59;41.89
65013;BME280;51715;39.432;-77.518;2023-05-11T10:26:39;100148.46;;;12.62;42.06
65013;BME280;51715;39.432;-77.518;2023-05-11T10:29:09;100153.79;;;12.68;42.13
65013;BME280;51715;39.432;-77.518;2023-05-11T10:31:40;100160.15;;;12.76;42.10
65013;BME280;51715;39.432;-77.518;2023-05-11T10:34:10;100159.27;;;12.36;41.85
65013;BME280;51715;39.432;-77.518;2023-05-11T10:36:39;100157.25;;;12.88;42.05
65013;BME280;51715;39.432;-77.518;2023-05-11T10:39:08;100160.93;;;12.51;41.97
65013;BME280;51715;39.432;-77.518;2023-05-11T10:41:47;100163.86;;;12.97;42.32
65013;BME280;51715;39.432;-77.518;2023-05-11T10:45:36;100168.35;;;12.84;42.82
65013;BME280;51715;39.432;-77.518;2023-05-11T10:48:19;100165.88;;;12.76;42.88
65013;BME280;51715;39.432;-77.518;2023-05-11T10:51:06;100165.14;;;12.72;42.94
65013;BME280;51715;39.432;-77.518;2023-05-11T10:53:57;100163.55;;;12.98;42.20
65013;BME280;51715;39.432;-77.518;2023-05-11T10:56:57;100163.76;;;13.17;42.45
65013;BME280;51715;39.432;-77.518;2023-05-11T10:59:46;100164.10;;;13.30;42.40
65013;BME280;51715;39.432;-77.518;2023-05-11T11:02:19;100163.81;;;13.36;42.68
65013;BME280;51715;39.432;-77.518;2023-05-11T11:04:49;100163.66;;;13.53;42.45
65013;BME280;51715;39.432;-77.518;2023-05-11T11:07:18;100168.58;;;13.73;42.57
65013;BME280;51715;39.432;-77.518;2023-05-11T11:09:55;100171.96;;;13.92;42.75
65013;BME280;51715;39.432;-77.518;2023-05-11T11:12:25;100175.57;;;13.68;42.35
65013;BME280;51715;39.432;-77.518;2023-05-11T11:14:56;100177.64;;;14.07;41.79
65013;BME280;51715;39.432;-77.518;2023-05-11T11:17:27;100179.00;;;13.99;41.87
65013;BME280;51715;39.432;-77.518;2023-05-11T11:19:56;100178.70;;;14.17;42.45
65013;BME280;51715;39.432;-77.518;2023-05-11T11:22:58;100179.25;;;14.36;42.97
65013;BME280;51715;39.432;-77.518;2023-05-11T11:25:58;100183.45;;;14.59;42.84
65013;BME280;51715;39.432;-77.518;2023-05-11T11:28:27;100185.81;;;14.94;42.07
65013;BME280;51715;39.432;-77.518;2023-05-11T11:31:29;100186.20;;;14.69;41.70
65013;BME280;51715;39.432;-77.518;2023-05-11T11:34:39;100185.83;;;14.97;41.42
65013;BME280;51715;39.432;-77.518;2023-05-11T11:37:08;100187.53;;;15.36;40.85
65013;BME280;51715;39.432;-77.518;2023-05-11T11:39:54;100189.34;;;15.62;40.52
65013;BME280;51715;39.432;-77.518;2023-05-11T11:42:37;100194.46;;;15.66;40.30
65013;BME280;51715;39.432;-77.518;2023-05-11T11:45:41;100187.38;;;15.95;39.87
65013;BME280;51715;39.432;-77.518;2023-05-11T11:48:20;100187.74;;;15.98;39.90
65013;BME280;51715;39.432;-77.518;2023-05-11T11:51:00;100189.89;;;16.45;40.14
65013;BME280;51715;39.432;-77.518;2023-05-11T11:53:58;100195.59;;;16.47;39.34
65013;BME280;51715;39.432;-77.518;2023-05-11T11:56:44;100193.82;;;16.66;39.36
65013;BME280;51715;39.432;-77.518;2023-05-11T11:59:14;100190.11;;;16.68;39.78
65013;BME280;51715;39.432;-77.518;2023-05-11T12:01:43;100186.49;;;16.71;39.22
65013;BME280;51715;39.432;-77.518;2023-05-11T12:04:36;100186.01;;;16.94;39.69
65013;BME280;51715;39.432;-77.518;2023-05-11T12:07:07;100181.54;;;17.34;39.33
65013;BME280;51715;39.432;-77.518;2023-05-11T12:09:37;100182.05;;;17.67;39.35
65013;BME280;51715;39.432;-77.518;2023-05-11T12:12:09;100181.37;;;17.57;39.18
65013;BME280;51715;39.432;-77.518;2023-05-11T12:14:38;100182.47;;;18.46;38.99
65013;BME280;51715;39.432;-77.518;2023-05-11T12:17:08;100181.34;;;18.49;38.98
65013;BME280;51715;39.432;-77.518;2023-05-11T12:19:37;100185.95;;;18.82;38.77
65013;BME280;51715;39.432;-77.518;2023-05-11T12:22:06;100187.22;;;18.91;38.15
65013;BME280;51715;39.432;-77.518;2023-05-11T12:24:33;100187.46;;;19.25;38.14
65013;BME280;51715;39.432;-77.518;2023-05-11T12:27:03;100187.37;;;19.59;37.59
65013;BME280;51715;39.432;-77.518;2023-05-11T12:29:32;100187.42;;;19.94;37.59
65013;BME280;51715;39.432;-77.518;2023-05-11T12:31:59;100184.79;;;19.75;37.52
65013;BME280;51715;39.432;-77.518;2023-05-11T12:34:27;100185.66;;;20.12;37.08
65013;BME280;51715;39.432;-77.518;2023-05-11T12:36:56;100188.95;;;20.40;36.42
65013;BME280;51715;39.432;-77.518;2023-05-11T12:39:26;100190.72;;;20.63;34.38
65013;BME280;51715;39.432;-77.518;2023-05-11T12:41:55;100195.00;;;20.57;35.28
65013;BME280;51715;39.432;-77.518;2023-05-11T12:44:25;100195.82;;;20.51;35.22
65013;BME280;51715;39.432;-77.518;2023-05-11T12:46:54;100194.88;;;21.01;34.85
65013;BME280;51715;39.432;-77.518;2023-05-11T12:49:23;100194.69;;;21.00;35.66
65013;BME280;51715;39.432;-77.518;2023-05-11T12:52:01;100195.23;;;21.23;33.96
65013;BME280;51715;39.432;-77.518;2023-05-11T12:54:32;100192.02;;;21.44;34.96